Weather at Logan International Airport

Public forecast

Using degrees Fahrenheit for public forecast. Weather courtesy of forecast.io.

Current aviation weather report (METAR) for Logan International Airport

Retrieved 2021/07/29 03:54 UTC (41 minutes ago):

KBOS 290354Z 22006KT 10SM CLR 19/13 A3003 RMK AO2 SLP170 T01940133

Aviation forecast (TAF) for Logan International Airport

Retrieved 2021-07-29 00:35 UTC (4 hours ago):

TAF KBOS 282326Z 2900/3006 14005KT P6SM FEW250 FM291700 18009KT P6SM BKN050 FM292200 19012G20KT P6SM VCSH OVC050 FM300200 18010G18KT 5SM -SHRA BR OVC030